sensor_id;sensor_type;location;lat;lon;timestamp;P1;durP1;ratioP1;P2;durP2;ratioP2
57113;SDS011;42994;51.606;9.988;2023-05-07T00:01:38;30.15;;;19.90;;
57113;SDS011;42994;51.606;9.988;2023-05-07T00:04:05;26.95;;;20.35;;
57113;SDS011;42994;51.606;9.988;2023-05-07T00:06:32;28.48;;;19.75;;
57113;SDS011;42994;51.606;9.988;2023-05-07T00:08:59;32.08;;;21.35;;
57113;SDS011;42994;51.606;9.988;2023-05-07T00:11:26;28.92;;;20.63;;
57113;SDS011;42994;51.606;9.988;2023-05-07T00:13:53;32.85;;;20.83;;
57113;SDS011;42994;51.606;9.988;2023-05-07T00:16:21;30.67;;;20.55;;
57113;SDS011;42994;51.606;9.988;2023-05-07T00:18:48;30.02;;;21.52;;
57113;SDS011;42994;51.606;9.988;2023-05-07T00:21:15;30.48;;;21.15;;
57113;SDS011;42994;51.606;9.988;2023-05-07T00:23:41;34.95;;;21.08;;
57113;SDS011;42994;51.606;9.988;2023-05-07T00:26:08;31.42;;;22.17;;
57113;SDS011;42994;51.606;9.988;2023-05-07T00:28:35;30.55;;;21.42;;
57113;SDS011;42994;51.606;9.988;2023-05-07T00:31:02;33.28;;;22.20;;
57113;SDS011;42994;51.606;9.988;2023-05-07T00:33:29;32.35;;;21.50;;
57113;SDS011;42994;51.606;9.988;2023-05-07T00:35:56;37.35;;;22.25;;
57113;SDS011;42994;51.606;9.988;2023-05-07T00:38:23;30.25;;;20.55;;
57113;SDS011;42994;51.606;9.988;2023-05-07T00:40:49;33.13;;;21.30;;
57113;SDS011;42994;51.606;9.988;2023-05-07T00:43:16;34.50;;;20.98;;
57113;SDS011;42994;51.606;9.988;2023-05-07T00:45:43;35.08;;;22.52;;
57113;SDS011;42994;51.606;9.988;2023-05-07T00:48:09;33.90;;;24.00;;
57113;SDS011;42994;51.606;9.988;2023-05-07T00:50:38;30.10;;;22.02;;
57113;SDS011;42994;51.606;9.988;2023-05-07T00:53:05;32.28;;;22.42;;
57113;SDS011;42994;51.606;9.988;2023-05-07T00:55:32;36.30;;;21.92;;
57113;SDS011;42994;51.606;9.988;2023-05-07T00:57:59;31.25;;;20.73;;
57113;SDS011;42994;51.606;9.988;2023-05-07T01:00:26;33.25;;;22.42;;
57113;SDS011;42994;51.606;9.988;2023-05-07T01:02:53;31.08;;;21.67;;
57113;SDS011;42994;51.606;9.988;2023-05-07T01:05:20;32.05;;;22.88;;
57113;SDS011;42994;51.606;9.988;2023-05-07T01:07:50;32.72;;;22.55;;
57113;SDS011;42994;51.606;9.988;2023-05-07T01:10:19;39.08;;;22.23;;
57113;SDS011;42994;51.606;9.988;2023-05-07T01:12:46;34.38;;;21.90;;
57113;SDS011;42994;51.606;9.988;2023-05-07T01:15:16;35.53;;;21.45;;
57113;SDS011;42994;51.606;9.988;2023-05-07T01:17:43;32.80;;;21.50;;
57113;SDS011;42994;51.606;9.988;2023-05-07T01:20:19;32.28;;;21.70;;
57113;SDS011;42994;51.606;9.988;2023-05-07T01:22:50;32.78;;;21.48;;
57113;SDS011;42994;51.606;9.988;2023-05-07T01:25:17;34.47;;;21.95;;
57113;SDS011;42994;51.606;9.988;2023-05-07T01:27:48;29.40;;;20.98;;
57113;SDS011;42994;51.606;9.988;2023-05-07T01:30:15;35.60;;;20.92;;
57113;SDS011;42994;51.606;9.988;2023-05-07T01:32:43;33.72;;;21.02;;
57113;SDS011;42994;51.606;9.988;2023-05-07T01:35:16;30.33;;;20.45;;
57113;SDS011;42994;51.606;9.988;2023-05-07T01:37:45;28.33;;;19.55;;
57113;SDS011;42994;51.606;9.988;2023-05-07T01:40:14;34.50;;;22.73;;
57113;SDS011;42994;51.606;9.988;2023-05-07T01:42:41;34.40;;;22.38;;
57113;SDS011;42994;51.606;9.988;2023-05-07T01:45:09;33.28;;;21.20;;
57113;SDS011;42994;51.606;9.988;2023-05-07T01:47:37;30.98;;;21.58;;
57113;SDS011;42994;51.606;9.988;2023-05-07T01:50:05;31.23;;;20.52;;
57113;SDS011;42994;51.606;9.988;2023-05-07T01:52:35;32.78;;;20.25;;
57113;SDS011;42994;51.606;9.988;2023-05-07T01:55:04;30.73;;;20.35;;
57113;SDS011;42994;51.606;9.988;2023-05-07T01:57:33;27.63;;;18.27;;
57113;SDS011;42994;51.606;9.988;2023-05-07T01:59:59;29.02;;;19.48;;
57113;SDS011;42994;51.606;9.988;2023-05-07T02:02:28;31.73;;;20.48;;
57113;SDS011;42994;51.606;9.988;2023-05-07T02:04:57;28.67;;;19.20;;
57113;SDS011;42994;51.606;9.988;2023-05-07T02:07:24;31.52;;;20.13;;
57113;SDS011;42994;51.606;9.988;2023-05-07T02:09:51;30.60;;;19.67;;
57113;SDS011;42994;51.606;9.988;2023-05-07T02:12:18;27.45;;;18.58;;
57113;SDS011;42994;51.606;9.988;2023-05-07T02:14:47;27.17;;;18.48;;
57113;SDS011;42994;51.606;9.988;2023-05-07T02:17:14;27.77;;;18.27;;
57113;SDS011;42994;51.606;9.988;2023-05-07T02:19:40;26.02;;;17.75;;
57113;SDS011;42994;51.606;9.988;2023-05-07T02:22:07;20.90;;;16.50;;
57113;SDS011;42994;51.606;9.988;2023-05-07T02:24:36;29.17;;;18.23;;
57113;SDS011;42994;51.606;9.988;2023-05-07T02:27:03;25.55;;;16.45;;
57113;SDS011;42994;51.606;9.988;2023-05-07T02:29:30;24.55;;;16.70;;
57113;SDS011;42994;51.606;9.988;2023-05-07T02:31:58;26.42;;;17.15;;
57113;SDS011;42994;51.606;9.988;2023-05-07T02:34:25;22.15;;;15.60;;
57113;SDS011;42994;51.606;9.988;2023-05-07T02:36:51;22.60;;;15.43;;
57113;SDS011;42994;51.606;9.988;2023-05-07T02:39:21;19.27;;;14.63;;
57113;SDS011;42994;51.606;9.988;2023-05-07T02:41:48;21.13;;;15.55;;
57113;SDS011;42994;51.606;9.988;2023-05-07T02:44:14;22.95;;;15.95;;
57113;SDS011;42994;51.606;9.988;2023-05-07T02:46:43;22.67;;;15.98;;
57113;SDS011;42994;51.606;9.988;2023-05-07T02:49:13;23.58;;;15.57;;
57113;SDS011;42994;51.606;9.988;2023-05-07T02:51:39;28.10;;;15.98;;
57113;SDS011;42994;51.606;9.988;2023-05-07T02:54:11;24.17;;;17.00;;
57113;SDS011;42994;51.606;9.988;2023-05-07T02:56:37;25.58;;;16.88;;
57113;SDS011;42994;51.606;9.988;2023-05-07T02:59:04;23.30;;;16.20;;
57113;SDS011;42994;51.606;9.988;2023-05-07T03:01:36;22.52;;;16.17;;
57113;SDS011;42994;51.606;9.988;2023-05-07T03:04:05;24.70;;;16.20;;
57113;SDS011;42994;51.606;9.988;2023-05-07T03:06:33;23.98;;;16.52;;
57113;SDS011;42994;51.606;9.988;2023-05-07T03:09:00;23.65;;;17.25;;
57113;SDS011;42994;51.606;9.988;2023-05-07T03:11:27;21.55;;;15.93;;
57113;SDS011;42994;51.606;9.988;2023-05-07T03:13:54;24.65;;;16.60;;
57113;SDS011;42994;51.606;9.988;2023-05-07T03:16:21;28.25;;;18.88;;
57113;SDS011;42994;51.606;9.988;2023-05-07T03:18:48;24.98;;;17.60;;
57113;SDS011;42994;51.606;9.988;2023-05-07T03:21:15;25.88;;;17.38;;
57113;SDS011;42994;51.606;9.988;2023-05-07T03:23:43;25.83;;;17.13;;
57113;SDS011;42994;51.606;9.988;2023-05-07T03:26:10;24.27;;;16.67;;
57113;SDS011;42994;51.606;9.988;2023-05-07T03:28:36;27.92;;;18.88;;
57113;SDS011;42994;51.606;9.988;2023-05-07T03:31:07;28.08;;;18.33;;
57113;SDS011;42994;51.606;9.988;2023-05-07T03:33:34;24.00;;;16.17;;
57113;SDS011;42994;51.606;9.988;2023-05-07T03:36:01;28.40;;;17.52;;
57113;SDS011;42994;51.606;9.988;2023-05-07T03:38:27;23.02;;;16.00;;
57113;SDS011;42994;51.606;9.988;2023-05-07T03:40:56;23.67;;;15.90;;
57113;SDS011;42994;51.606;9.988;2023-05-07T03:43:22;28.15;;;16.95;;
57113;SDS011;42994;51.606;9.988;2023-05-07T03:45:57;23.58;;;15.63;;
57113;SDS011;42994;51.606;9.988;2023-05-07T03:48:26;22.13;;;14.95;;
57113;SDS011;42994;51.606;9.988;2023-05-07T03:50:56;23.70;;;15.68;;
57113;SDS011;42994;51.606;9.988;2023-05-07T03:53:26;24.58;;;15.23;;
57113;SDS011;42994;51.606;9.988;2023-05-07T03:55:53;20.73;;;13.98;;
57113;SDS011;42994;51.606;9.988;2023-05-07T03:58:21;18.58;;;13.43;;
57113;SDS011;42994;51.606;9.988;2023-05-07T04:00:49;20.40;;;14.43;;
57113;SDS011;42994;51.606;9.988;2023-05-07T04:03:24;19.83;;;14.55;;
57113;SDS011;42994;51.606;9.988;2023-05-07T04:05:51;20.63;;;13.98;;
57113;SDS011;42994;51.606;9.988;2023-05-07T04:08:18;20.65;;;13.98;;
57113;SDS011;42994;51.606;9.988;2023-05-07T04:10:48;21.50;;;13.70;;
57113;SDS011;42994;51.606;9.988;2023-05-07T04:13:21;18.85;;;12.52;;
57113;SDS011;42994;51.606;9.988;2023-05-07T04:15:48;19.30;;;13.00;;
57113;SDS011;42994;51.606;9.988;2023-05-07T04:18:17;21.48;;;13.80;;
57113;SDS011;42994;51.606;9.988;2023-05-07T04:20:46;19.90;;;13.82;;
57113;SDS011;42994;51.606;9.988;2023-05-07T04:23:14;20.85;;;13.13;;
57113;SDS011;42994;51.606;9.988;2023-05-07T04:25:41;17.35;;;12.15;;
57113;SDS011;42994;51.606;9.988;2023-05-07T04:28:16;16.60;;;12.13;;
57113;SDS011;42994;51.606;9.988;2023-05-07T04:30:44;16.73;;;11.50;;
57113;SDS011;42994;51.606;9.988;2023-05-07T04:33:11;18.05;;;12.95;;
57113;SDS011;42994;51.606;9.988;2023-05-07T04:35:40;16.73;;;12.27;;
57113;SDS011;42994;51.606;9.988;2023-05-07T04:38:07;17.65;;;11.60;;
57113;SDS011;42994;51.606;9.988;2023-05-07T04:40:36;17.55;;;11.55;;
57113;SDS011;42994;51.606;9.988;2023-05-07T04:43:11;20.83;;;12.90;;
57113;SDS011;42994;51.606;9.988;2023-05-07T04:45:45;18.58;;;12.35;;
57113;SDS011;42994;51.606;9.988;2023-05-07T04:48:12;19.77;;;12.57;;
57113;SDS011;42994;51.606;9.988;2023-05-07T04:50:40;16.48;;;11.80;;
57113;SDS011;42994;51.606;9.988;2023-05-07T04:53:07;17.30;;;12.38;;
57113;SDS011;42994;51.606;9.988;2023-05-07T04:55:33;17.58;;;11.98;;
57113;SDS011;42994;51.606;9.988;2023-05-07T04:58:01;21.05;;;12.93;;
57113;SDS011;42994;51.606;9.988;2023-05-07T05:00:30;18.95;;;12.88;;
57113;SDS011;42994;51.606;9.988;2023-05-07T05:02:59;17.25;;;12.40;;
57113;SDS011;42994;51.606;9.988;2023-05-07T05:05:26;15.70;;;11.52;;
57113;SDS011;42994;51.606;9.988;2023-05-07T05:07:54;16.77;;;12.68;;
57113;SDS011;42994;51.606;9.988;2023-05-07T05:10:21;17.63;;;12.55;;
57113;SDS011;42994;51.606;9.988;2023-05-07T05:12:49;18.00;;;11.60;;
57113;SDS011;42994;51.606;9.988;2023-05-07T05:15:16;20.42;;;11.32;;
57113;SDS011;42994;51.606;9.988;2023-05-07T05:17:42;18.20;;;13.40;;
57113;SDS011;42994;51.606;9.988;2023-05-07T05:20:11;18.90;;;13.45;;
57113;SDS011;42994;51.606;9.988;2023-05-07T05:22:39;17.95;;;12.18;;
57113;SDS011;42994;51.606;9.988;2023-05-07T05:25:07;20.13;;;12.18;;
57113;SDS011;42994;51.606;9.988;2023-05-07T05:27:34;18.98;;;13.30;;
57113;SDS011;42994;51.606;9.988;2023-05-07T05:30:00;17.40;;;13.15;;
57113;SDS011;42994;51.606;9.988;2023-05-07T05:32:29;18.17;;;13.60;;
57113;SDS011;42994;51.606;9.988;2023-05-07T05:34:56;21.48;;;13.77;;
57113;SDS011;42994;51.606;9.988;2023-05-07T05:37:25;21.15;;;13.82;;
57113;SDS011;42994;51.606;9.988;2023-05-07T05:39:52;22.88;;;13.30;;
57113;SDS011;42994;51.606;9.988;2023-05-07T05:42:20;20.10;;;13.43;;
57113;SDS011;42994;51.606;9.988;2023-05-07T05:44:46;20.48;;;13.60;;
57113;SDS011;42994;51.606;9.988;2023-05-07T05:47:13;20.60;;;12.90;;
57113;SDS011;42994;51.606;9.988;2023-05-07T05:49:43;22.48;;;14.18;;
57113;SDS011;42994;51.606;9.988;2023-05-07T05:52:13;21.60;;;13.82;;
57113;SDS011;42994;51.606;9.988;2023-05-07T05:54:43;19.92;;;13.88;;
57113;SDS011;42994;51.606;9.988;2023-05-07T05:57:10;18.42;;;13.07;;
57113;SDS011;42994;51.606;9.988;2023-05-07T05:59:36;18.50;;;13.70;;
57113;SDS011;42994;51.606;9.988;2023-05-07T06:02:03;20.20;;;13.10;;
57113;SDS011;42994;51.606;9.988;2023-05-07T06:04:30;19.30;;;12.90;;
57113;SDS011;42994;51.606;9.988;2023-05-07T06:06:57;21.95;;;11.52;;
57113;SDS011;42994;51.606;9.988;2023-05-07T06:09:25;18.88;;;11.05;;
57113;SDS011;42994;51.606;9.988;2023-05-07T06:11:53;17.30;;;11.40;;
57113;SDS011;42994;51.606;9.988;2023-05-07T06:14:19;17.08;;;11.93;;
57113;SDS011;42994;51.606;9.988;2023-05-07T06:16:46;15.25;;;10.43;;
57113;SDS011;42994;51.606;9.988;2023-05-07T06:19:13;17.45;;;11.00;;
57113;SDS011;42994;51.606;9.988;2023-05-07T06:21:40;16.73;;;10.52;;
57113;SDS011;42994;51.606;9.988;2023-05-07T06:24:07;14.35;;;9.63;;
57113;SDS011;42994;51.606;9.988;2023-05-07T06:26:40;14.55;;;9.98;;
57113;SDS011;42994;51.606;9.988;2023-05-07T06:29:08;13.93;;;9.52;;
57113;SDS011;42994;51.606;9.988;2023-05-07T06:31:35;12.80;;;9.00;;
57113;SDS011;42994;51.606;9.988;2023-05-07T06:34:05;15.98;;;10.45;;
57113;SDS011;42994;51.606;9.988;2023-05-07T06:36:37;13.90;;;9.85;;
57113;SDS011;42994;51.606;9.988;2023-05-07T06:39:22;15.00;;;8.43;;
57113;SDS011;42994;51.606;9.988;2023-05-07T06:41:51;13.00;;;9.38;;
57113;SDS011;42994;51.606;9.988;2023-05-07T06:44:25;13.98;;;9.10;;
57113;SDS011;42994;51.606;9.988;2023-05-07T06:47:07;15.45;;;9.60;;
57113;SDS011;42994;51.606;9.988;2023-05-07T06:49:34;14.35;;;8.52;;
57113;SDS011;42994;51.606;9.988;2023-05-07T06:52:09;14.20;;;9.07;;
57113;SDS011;42994;51.606;9.988;2023-05-07T06:54:36;14.50;;;9.35;;
57113;SDS011;42994;51.606;9.988;2023-05-07T06:57:03;15.25;;;8.35;;
57113;SDS011;42994;51.606;9.988;2023-05-07T06:59:32;14.82;;;9.35;;
57113;SDS011;42994;51.606;9.988;2023-05-07T07:01:59;15.23;;;9.88;;
57113;SDS011;42994;51.606;9.988;2023-05-07T07:04:25;15.93;;;9.48;;
57113;SDS011;42994;51.606;9.988;2023-05-07T07:07:00;17.17;;;9.10;;
57113;SDS011;42994;51.606;9.988;2023-05-07T07:09:27;13.73;;;8.98;;
57113;SDS011;42994;51.606;9.988;2023-05-07T07:12:03;15.02;;;9.55;;
57113;SDS011;42994;51.606;9.988;2023-05-07T07:14:31;16.08;;;9.43;;
57113;SDS011;42994;51.606;9.988;2023-05-07T07:16:58;15.55;;;9.48;;
57113;SDS011;42994;51.606;9.988;2023-05-07T07:19:25;15.55;;;9.90;;
57113;SDS011;42994;51.606;9.988;2023-05-07T07:21:54;17.20;;;10.23;;
57113;SDS011;42994;51.606;9.988;2023-05-07T07:24:20;14.68;;;9.63;;
57113;SDS011;42994;51.606;9.988;2023-05-07T07:26:50;16.90;;;10.00;;
57113;SDS011;42994;51.606;9.988;2023-05-07T07:29:17;17.98;;;10.18;;
57113;SDS011;42994;51.606;9.988;2023-05-07T07:31:47;15.35;;;9.73;;
57113;SDS011;42994;51.606;9.988;2023-05-07T07:34:14;14.68;;;9.68;;
57113;SDS011;42994;51.606;9.988;2023-05-07T07:36:41;17.35;;;9.95;;
57113;SDS011;42994;51.606;9.988;2023-05-07T07:39:08;17.52;;;10.02;;
57113;SDS011;42994;51.606;9.988;2023-05-07T07:41:36;16.73;;;10.60;;
57113;SDS011;42994;51.606;9.988;2023-05-07T07:59:14;16.80;;;10.02;;
57113;SDS011;42994;51.606;9.988;2023-05-07T08:01:48;14.45;;;9.77;;
57113;SDS011;42994;51.606;9.988;2023-05-07T08:04:17;14.43;;;9.15;;
57113;SDS011;42994;51.606;9.988;2023-05-07T08:06:45;14.40;;;9.45;;
57113;SDS011;42994;51.606;9.988;2023-05-07T08:09:12;16.20;;;9.18;;
57113;SDS011;42994;51.606;9.988;2023-05-07T08:11:40;14.45;;;9.32;;
57113;SDS011;42994;51.606;9.988;2023-05-07T08:14:08;14.65;;;9.25;;
57113;SDS011;42994;51.606;9.988;2023-05-07T08:16:37;15.52;;;9.77;;
57113;SDS011;42994;51.606;9.988;2023-05-07T08:19:03;14.85;;;9.48;;
57113;SDS011;42994;51.606;9.988;2023-05-07T08:21:30;16.50;;;10.05;;
57113;SDS011;42994;51.606;9.988;2023-05-07T08:23:58;19.23;;;10.50;;
57113;SDS011;42994;51.606;9.988;2023-05-07T08:26:24;15.45;;;10.38;;
57113;SDS011;42994;51.606;9.988;2023-05-07T08:29:01;17.10;;;10.77;;
57113;SDS011;42994;51.606;9.988;2023-05-07T08:31:53;15.10;;;10.20;;
57113;SDS011;42994;51.606;9.988;2023-05-07T08:34:21;14.50;;;10.05;;
57113;SDS011;42994;51.606;9.988;2023-05-07T08:36:50;16.77;;;10.55;;
57113;SDS011;42994;51.606;9.988;2023-05-07T08:39:20;15.30;;;10.88;;
57113;SDS011;42994;51.606;9.988;2023-05-07T08:41:55;16.80;;;10.82;;
57113;SDS011;42994;51.606;9.988;2023-05-07T08:44:27;18.02;;;10.43;;
57113;SDS011;42994;51.606;9.988;2023-05-07T08:47:01;14.45;;;10.55;;
57113;SDS011;42994;51.606;9.988;2023-05-07T08:49:30;15.40;;;11.02;;
57113;SDS011;42994;51.606;9.988;2023-05-07T08:51:57;18.08;;;11.95;;
57113;SDS011;42994;51.606;9.988;2023-05-07T08:54:24;16.58;;;11.85;;
57113;SDS011;42994;51.606;9.988;2023-05-07T08:56:52;16.15;;;10.73;;
57113;SDS011;42994;51.606;9.988;2023-05-07T08:59:19;17.83;;;12.32;;
57113;SDS011;42994;51.606;9.988;2023-05-07T09:01:46;19.85;;;12.73;;
57113;SDS011;42994;51.606;9.988;2023-05-07T09:04:15;19.10;;;12.70;;
57113;SDS011;42994;51.606;9.988;2023-05-07T09:06:43;19.20;;;11.95;;
57113;SDS011;42994;51.606;9.988;2023-05-07T09:09:14;20.50;;;13.68;;
57113;SDS011;42994;51.606;9.988;2023-05-07T09:11:44;20.17;;;13.05;;
57113;SDS011;42994;51.606;9.988;2023-05-07T09:14:13;21.02;;;14.82;;
57113;SDS011;42994;51.606;9.988;2023-05-07T09:16:42;19.90;;;14.05;;
57113;SDS011;42994;51.606;9.988;2023-05-07T09:19:09;21.80;;;14.25;;
57113;SDS011;42994;51.606;9.988;2023-05-07T09:21:41;21.98;;;15.23;;
57113;SDS011;42994;51.606;9.988;2023-05-07T09:24:09;21.08;;;14.50;;
57113;SDS011;42994;51.606;9.988;2023-05-07T09:26:39;22.15;;;14.65;;
57113;SDS011;42994;51.606;9.988;2023-05-07T09:29:08;23.17;;;15.93;;
57113;SDS011;42994;51.606;9.988;2023-05-07T09:31:36;22.80;;;14.75;;
57113;SDS011;42994;51.606;9.988;2023-05-07T09:34:05;19.73;;;13.60;;
57113;SDS011;42994;51.606;9.988;2023-05-07T09:36:34;22.70;;;15.32;;
57113;SDS011;42994;51.606;9.988;2023-05-07T09:39:03;21.95;;;15.27;;
57113;SDS011;42994;51.606;9.988;2023-05-07T09:41:30;25.15;;;15.60;;
57113;SDS011;42994;51.606;9.988;2023-05-07T09:44:05;20.58;;;15.00;;
57113;SDS011;42994;51.606;9.988;2023-05-07T09:49:16;23.50;;;14.75;;
57113;SDS011;42994;51.606;9.988;2023-05-07T09:51:49;24.40;;;15.60;;
57113;SDS011;42994;51.606;9.988;2023-05-07T09:54:18;22.92;;;15.20;;
57113;SDS011;42994;51.606;9.988;2023-05-07T09:56:48;22.48;;;15.73;;
57113;SDS011;42994;51.606;9.988;2023-05-07T09:59:17;23.30;;;16.02;;
57113;SDS011;42994;51.606;9.988;2023-05-07T10:01:46;23.40;;;16.17;;
57113;SDS011;42994;51.606;9.988;2023-05-07T10:04:15;26.77;;;15.85;;
57113;SDS011;42994;51.606;9.988;2023-05-07T10:06:47;24.45;;;16.58;;
57113;SDS011;42994;51.606;9.988;2023-05-07T10:09:22;23.50;;;15.55;;
57113;SDS011;42994;51.606;9.988;2023-05-07T10:11:54;22.20;;;17.13;;
57113;SDS011;42994;51.606;9.988;2023-05-07T10:14:22;29.35;;;17.77;;
57113;SDS011;42994;51.606;9.988;2023-05-07T10:16:50;24.40;;;17.83;;
57113;SDS011;42994;51.606;9.988;2023-05-07T10:19:23;25.33;;;18.90;;
57113;SDS011;42994;51.606;9.988;2023-05-07T10:21:54;27.67;;;19.73;;
57113;SDS011;42994;51.606;9.988;2023-05-07T10:24:26;26.15;;;18.48;;
57113;SDS011;42994;51.606;9.988;2023-05-07T10:27:00;22.40;;;16.13;;
57113;SDS011;42994;51.606;9.988;2023-05-07T10:30:12;27.60;;;18.15;;
57113;SDS011;42994;51.606;9.988;2023-05-07T10:32:53;22.83;;;17.00;;
57113;SDS011;42994;51.606;9.988;2023-05-07T10:35:30;25.00;;;17.13;;
57113;SDS011;42994;51.606;9.988;2023-05-07T10:38:02;23.00;;;17.45;;
57113;SDS011;42994;51.606;9.988;2023-05-07T10:40:35;24.13;;;17.92;;
57113;SDS011;42994;51.606;9.988;2023-05-07T10:43:03;24.92;;;17.25;;
57113;SDS011;42994;51.606;9.988;2023-05-07T10:45:37;23.02;;;16.50;;
57113;SDS011;42994;51.606;9.988;2023-05-07T10:48:05;25.20;;;17.40;;
57113;SDS011;42994;51.606;9.988;2023-05-07T10:50:33;22.95;;;16.80;;
57113;SDS011;42994;51.606;9.988;2023-05-07T10:53:21;22.92;;;16.73;;
57113;SDS011;42994;51.606;9.988;2023-05-07T10:56:26;24.17;;;16.40;;
57113;SDS011;42994;51.606;9.988;2023-05-07T11:05:23;25.65;;;17.10;;
57113;SDS011;42994;51.606;9.988;2023-05-07T11:08:08;21.90;;;15.43;;
57113;SDS011;42994;51.606;9.988;2023-05-07T11:10:52;24.00;;;15.93;;
57113;SDS011;42994;51.606;9.988;2023-05-07T11:13:43;20.17;;;15.35;;
57113;SDS011;42994;51.606;9.988;2023-05-07T11:16:24;19.58;;;14.75;;
57113;SDS011;42994;51.606;9.988;2023-05-07T11:19:00;22.60;;;16.05;;
57113;SDS011;42994;51.606;9.988;2023-05-07T11:21:37;21.40;;;14.93;;
57113;SDS011;42994;51.606;9.988;2023-05-07T11:24:18;21.65;;;15.38;;
57113;SDS011;42994;51.606;9.988;2023-05-07T11:26:52;23.92;;;16.08;;
57113;SDS011;42994;51.606;9.988;2023-05-07T11:29:22;20.55;;;15.75;;
57113;SDS011;42994;51.606;9.988;2023-05-07T11:31:57;20.90;;;15.05;;
57113;SDS011;42994;51.606;9.988;2023-05-07T11:34:29;22.63;;;15.63;;
57113;SDS011;42994;51.606;9.988;2023-05-07T11:36:57;18.08;;;14.43;;
57113;SDS011;42994;51.606;9.988;2023-05-07T11:39:37;22.92;;;15.77;;
57113;SDS011;42994;51.606;9.988;2023-05-07T11:42:04;25.67;;;15.93;;
57113;SDS011;42994;51.606;9.988;2023-05-07T11:44:41;21.33;;;16.80;;
57113;SDS011;42994;51.606;9.988;2023-05-07T11:47:09;23.10;;;17.08;;
57113;SDS011;42994;51.606;9.988;2023-05-07T11:49:36;24.17;;;16.50;;
57113;SDS011;42994;51.606;9.988;2023-05-07T11:52:03;22.35;;;16.77;;
57113;SDS011;42994;51.606;9.988;2023-05-07T11:54:34;21.27;;;16.58;;
57113;SDS011;42994;51.606;9.988;2023-05-07T11:59:28;22.23;;;17.70;;
57113;SDS011;42994;51.606;9.988;2023-05-07T12:01:57;20.92;;;15.93;;
57113;SDS011;42994;51.606;9.988;2023-05-07T12:04:24;22.42;;;16.27;;
57113;SDS011;42994;51.606;9.988;2023-05-07T12:06:53;20.60;;;15.85;;
57113;SDS011;42994;51.606;9.988;2023-05-07T12:09:21;20.88;;;16.02;;
57113;SDS011;42994;51.606;9.988;2023-05-07T12:11:48;21.98;;;15.75;;
57113;SDS011;42994;51.606;9.988;2023-05-07T12:14:14;20.52;;;15.93;;
57113;SDS011;42994;51.606;9.988;2023-05-07T12:16:42;21.10;;;16.52;;
57113;SDS011;42994;51.606;9.988;2023-05-07T12:19:11;21.45;;;16.80;;
57113;SDS011;42994;51.606;9.988;2023-05-07T12:21:38;21.17;;;15.70;;
57113;SDS011;42994;51.606;9.988;2023-05-07T12:24:05;19.00;;;15.48;;
57113;SDS011;42994;51.606;9.988;2023-05-07T12:26:32;16.95;;;14.43;;
57113;SDS011;42994;51.606;9.988;2023-05-07T12:29:04;20.05;;;14.80;;
57113;SDS011;42994;51.606;9.988;2023-05-07T12:31:30;17.10;;;14.02;;
57113;SDS011;42994;51.606;9.988;2023-05-07T12:33:57;18.48;;;13.93;;
57113;SDS011;42994;51.606;9.988;2023-05-07T12:36:25;20.02;;;14.40;;
57113;SDS011;42994;51.606;9.988;2023-05-07T12:38:52;18.02;;;15.30;;
57113;SDS011;42994;51.606;9.988;2023-05-07T12:41:21;16.73;;;14.32;;
57113;SDS011;42994;51.606;9.988;2023-05-07T12:43:51;16.83;;;14.13;;
57113;SDS011;42994;51.606;9.988;2023-05-07T12:46:22;15.73;;;12.98;;
57113;SDS011;42994;51.606;9.988;2023-05-07T12:48:49;17.38;;;13.70;;
57113;SDS011;42994;51.606;9.988;2023-05-07T12:51:16;16.27;;;14.38;;
57113;SDS011;42994;51.606;9.988;2023-05-07T12:53:44;18.05;;;13.23;;
57113;SDS011;42994;51.606;9.988;2023-05-07T12:56:12;20.95;;;14.77;;
57113;SDS011;42994;51.606;9.988;2023-05-07T12:58:42;18.23;;;14.48;;
57113;SDS011;42994;51.606;9.988;2023-05-07T13:01:08;14.93;;;13.20;;
57113;SDS011;42994;51.606;9.988;2023-05-07T13:06:07;17.45;;;14.52;;
57113;SDS011;42994;51.606;9.988;2023-05-07T13:08:37;20.40;;;16.05;;
57113;SDS011;42994;51.606;9.988;2023-05-07T13:11:09;18.05;;;15.20;;
57113;SDS011;42994;51.606;9.988;2023-05-07T13:13:38;17.05;;;14.60;;
57113;SDS011;42994;51.606;9.988;2023-05-07T13:16:06;15.85;;;13.43;;
57113;SDS011;42994;51.606;9.988;2023-05-07T13:18:34;17.02;;;15.07;;
57113;SDS011;42994;51.606;9.988;2023-05-07T13:21:01;16.48;;;14.45;;
57113;SDS011;42994;51.606;9.988;2023-05-07T13:23:28;18.45;;;15.02;;
57113;SDS011;42994;51.606;9.988;2023-05-07T13:25:55;16.83;;;14.13;;
57113;SDS011;42994;51.606;9.988;2023-05-07T13:28:23;17.25;;;14.60;;
57113;SDS011;42994;51.606;9.988;2023-05-07T13:30:52;16.33;;;13.50;;
57113;SDS011;42994;51.606;9.988;2023-05-07T13:33:19;18.08;;;13.45;;
57113;SDS011;42994;51.606;9.988;2023-05-07T13:35:46;15.57;;;13.30;;
57113;SDS011;42994;51.606;9.988;2023-05-07T13:38:12;16.00;;;13.20;;
57113;SDS011;42994;51.606;9.988;2023-05-07T13:40:40;15.95;;;13.60;;
57113;SDS011;42994;51.606;9.988;2023-05-07T13:43:07;15.40;;;12.68;;
57113;SDS011;42994;51.606;9.988;2023-05-07T13:45:35;16.70;;;13.52;;
57113;SDS011;42994;51.606;9.988;2023-05-07T13:48:02;14.18;;;12.40;;
57113;SDS011;42994;51.606;9.988;2023-05-07T13:50:29;15.10;;;12.52;;
57113;SDS011;42994;51.606;9.988;2023-05-07T13:52:56;14.05;;;10.68;;
57113;SDS011;42994;51.606;9.988;2023-05-07T13:55:23;12.70;;;11.20;;
57113;SDS011;42994;51.606;9.988;2023-05-07T13:57:54;12.70;;;11.35;;
57113;SDS011;42994;51.606;9.988;2023-05-07T14:00:22;12.98;;;11.40;;
57113;SDS011;42994;51.606;9.988;2023-05-07T14:02:51;14.27;;;11.38;;
57113;SDS011;42994;51.606;9.988;2023-05-07T14:05:17;11.63;;;10.23;;
57113;SDS011;42994;51.606;9.988;2023-05-07T14:07:45;12.73;;;11.43;;
57113;SDS011;42994;51.606;9.988;2023-05-07T14:10:12;12.50;;;11.20;;
57113;SDS011;42994;51.606;9.988;2023-05-07T14:12:39;12.13;;;10.85;;
57113;SDS011;42994;51.606;9.988;2023-05-07T14:15:06;11.05;;;9.80;;
57113;SDS011;42994;51.606;9.988;2023-05-07T14:17:33;12.77;;;10.90;;
57113;SDS011;42994;51.606;9.988;2023-05-07T14:20:01;12.38;;;11.07;;
57113;SDS011;42994;51.606;9.988;2023-05-07T14:22:28;13.95;;;11.27;;
57113;SDS011;42994;51.606;9.988;2023-05-07T14:24:55;11.20;;;10.10;;
57113;SDS011;42994;51.606;9.988;2023-05-07T14:27:23;11.57;;;10.48;;
57113;SDS011;42994;51.606;9.988;2023-05-07T14:29:49;11.18;;;9.95;;
57113;SDS011;42994;51.606;9.988;2023-05-07T14:32:17;10.15;;;9.15;;
57113;SDS011;42994;51.606;9.988;2023-05-07T14:34:44;10.57;;;9.48;;
57113;SDS011;42994;51.606;9.988;2023-05-07T14:37:12;11.05;;;9.95;;
57113;SDS011;42994;51.606;9.988;2023-05-07T14:39:39;9.38;;;8.48;;
57113;SDS011;42994;51.606;9.988;2023-05-07T14:42:05;10.50;;;9.48;;
57113;SDS011;42994;51.606;9.988;2023-05-07T14:44:33;11.60;;;10.40;;
57113;SDS011;42994;51.606;9.988;2023-05-07T14:46:59;10.35;;;9.32;;
57113;SDS011;42994;51.606;9.988;2023-05-07T14:49:26;9.82;;;8.93;;
57113;SDS011;42994;51.606;9.988;2023-05-07T14:51:53;8.48;;;7.60;;
57113;SDS011;42994;51.606;9.988;2023-05-07T14:54:22;7.75;;;7.05;;
57113;SDS011;42994;51.606;9.988;2023-05-07T14:56:49;9.18;;;8.27;;
57113;SDS011;42994;51.606;9.988;2023-05-07T14:59:15;8.50;;;7.70;;
57113;SDS011;42994;51.606;9.988;2023-05-07T15:04:50;8.40;;;7.38;;
57113;SDS011;42994;51.606;9.988;2023-05-07T15:07:16;7.88;;;7.07;;